Cottonwood Creek, Nevada
Current Conditions -  °F | °C
As of 2:55 AM on Sunday 26 Oct 2014 (Local Time) from KRTS Reporting Station
Clear Clear  
Wind Chill: 37°   Ceiling: Unl
Heat Index: 45°   Visibility: 10mi
Dew Point: 32°   Wind: 17mph
Humidity: 61%   Direction: 260°W
Pressure: 30.09"   Gusts: 23mph
Location:  39.8171°N, 119.63°W
Report Text: KRTS 260955Z AUTO 26015G20KT 10SM CLR 07/00 A3009 RMK AO2
Loading
Personal Weather Stations






























Interactive Weather Map
Tropical Storm Tracking
New forecast layout! Learn more

10-Day Weather Forecast

Advertisements
Track Severe Weather on mobile